sensor_id;sensor_type;location;lat;lon;timestamp;temperature;humidity
25628;DHT22;40915;50.826;4.356;2023-02-28T00:00:21;2.00;99.90
25628;DHT22;40915;50.826;4.356;2023-02-28T00:02:47;2.00;99.90
25628;DHT22;40915;50.826;4.356;2023-02-28T00:05:16;2.00;99.90
25628;DHT22;40915;50.826;4.356;2023-02-28T00:07:42;2.00;99.90
25628;DHT22;40915;50.826;4.356;2023-02-28T00:10:10;2.00;99.90
25628;DHT22;40915;50.826;4.356;2023-02-28T00:12:36;1.90;99.90
25628;DHT22;40915;50.826;4.356;2023-02-28T00:15:05;1.90;99.90
25628;DHT22;40915;50.826;4.356;2023-02-28T00:17:31;1.90;99.90
25628;DHT22;40915;50.826;4.356;2023-02-28T00:19:57;1.90;99.90
25628;DHT22;40915;50.826;4.356;2023-02-28T00:22:27;1.90;99.90
25628;DHT22;40915;50.826;4.356;2023-02-28T00:24:53;1.90;99.90
25628;DHT22;40915;50.826;4.356;2023-02-28T00:27:19;1.90;99.90
25628;DHT22;40915;50.826;4.356;2023-02-28T00:29:46;1.90;99.90
25628;DHT22;40915;50.826;4.356;2023-02-28T00:32:14;1.90;99.90
25628;DHT22;40915;50.826;4.356;2023-02-28T00:34:40;1.90;99.90
25628;DHT22;40915;50.826;4.356;2023-02-28T00:37:06;1.90;99.90
25628;DHT22;40915;50.826;4.356;2023-02-28T00:39:36;1.80;99.90
25628;DHT22;40915;50.826;4.356;2023-02-28T00:42:02;1.80;99.90
25628;DHT22;40915;50.826;4.356;2023-02-28T00:44:29;1.70;99.90
25628;DHT22;40915;50.826;4.356;2023-02-28T00:46:55;1.70;99.90
25628;DHT22;40915;50.826;4.356;2023-02-28T00:49:22;1.70;99.90
25628;DHT22;40915;50.826;4.356;2023-02-28T00:51:47;1.70;99.90
25628;DHT22;40915;50.826;4.356;2023-02-28T00:54:13;1.70;99.90
25628;DHT22;40915;50.826;4.356;2023-02-28T00:56:39;1.70;99.90
25628;DHT22;40915;50.826;4.356;2023-02-28T00:59:04;1.70;99.90
25628;DHT22;40915;50.826;4.356;2023-02-28T01:01:30;1.70;99.90
25628;DHT22;40915;50.826;4.356;2023-02-28T01:03:56;1.70;99.90
25628;DHT22;40915;50.826;4.356;2023-02-28T01:06:21;1.70;99.90
25628;DHT22;40915;50.826;4.356;2023-02-28T01:08:47;1.70;99.90
25628;DHT22;40915;50.826;4.356;2023-02-28T01:11:15;1.60;99.90
25628;DHT22;40915;50.826;4.356;2023-02-28T01:13:42;1.60;99.90
25628;DHT22;40915;50.826;4.356;2023-02-28T01:16:08;1.60;99.90
25628;DHT22;40915;50.826;4.356;2023-02-28T01:18:34;1.60;99.90
25628;DHT22;40915;50.826;4.356;2023-02-28T01:21:04;1.60;99.90
25628;DHT22;40915;50.826;4.356;2023-02-28T01:23:30;1.60;99.90
25628;DHT22;40915;50.826;4.356;2023-02-28T01:25:56;1.60;99.90
25628;DHT22;40915;50.826;4.356;2023-02-28T01:28:21;1.50;99.90
25628;DHT22;40915;50.826;4.356;2023-02-28T01:30:51;1.50;99.90
25628;DHT22;40915;50.826;4.356;2023-02-28T01:33:16;1.50;99.90
25628;DHT22;40915;50.826;4.356;2023-02-28T01:35:42;1.40;99.90
25628;DHT22;40915;50.826;4.356;2023-02-28T01:38:07;1.40;99.90
25628;DHT22;40915;50.826;4.356;2023-02-28T01:40:34;1.40;99.90
25628;DHT22;40915;50.826;4.356;2023-02-28T01:43:00;1.40;99.90
25628;DHT22;40915;50.826;4.356;2023-02-28T01:45:30;1.50;99.90
25628;DHT22;40915;50.826;4.356;2023-02-28T01:48:03;1.40;99.90
25628;DHT22;40915;50.826;4.356;2023-02-28T01:50:36;1.50;99.90
25628;DHT22;40915;50.826;4.356;2023-02-28T01:53:07;1.50;99.90
25628;DHT22;40915;50.826;4.356;2023-02-28T01:55:36;1.50;99.90
25628;DHT22;40915;50.826;4.356;2023-02-28T01:58:04;1.50;99.90
25628;DHT22;40915;50.826;4.356;2023-02-28T02:00:31;1.40;99.90
25628;DHT22;40915;50.826;4.356;2023-02-28T02:02:59;1.50;99.90
25628;DHT22;40915;50.826;4.356;2023-02-28T02:05:29;1.40;99.90
25628;DHT22;40915;50.826;4.356;2023-02-28T02:08:01;1.40;99.90
25628;DHT22;40915;50.826;4.356;2023-02-28T02:10:48;1.30;99.90
25628;DHT22;40915;50.826;4.356;2023-02-28T02:18:38;1.20;99.90
25628;DHT22;40915;50.826;4.356;2023-02-28T02:29:54;1.30;99.90
25628;DHT22;40915;50.826;4.356;2023-02-28T02:36:16;1.20;99.90
25628;DHT22;40915;50.826;4.356;2023-02-28T02:38:38;1.20;99.90
25628;DHT22;40915;50.826;4.356;2023-02-28T02:43:50;1.10;99.90
25628;DHT22;40915;50.826;4.356;2023-02-28T02:46:22;1.10;99.90
25628;DHT22;40915;50.826;4.356;2023-02-28T02:48:50;1.10;99.90
25628;DHT22;40915;50.826;4.356;2023-02-28T02:51:20;1.10;99.90
25628;DHT22;40915;50.826;4.356;2023-02-28T02:53:51;1.10;99.90
25628;DHT22;40915;50.826;4.356;2023-02-28T02:56:22;1.10;99.90
25628;DHT22;40915;50.826;4.356;2023-02-28T02:58:50;1.00;99.90
25628;DHT22;40915;50.826;4.356;2023-02-28T03:01:20;1.00;99.90
25628;DHT22;40915;50.826;4.356;2023-02-28T03:03:57;1.00;99.90
25628;DHT22;40915;50.826;4.356;2023-02-28T03:06:24;1.00;99.90
25628;DHT22;40915;50.826;4.356;2023-02-28T03:08:50;1.00;99.90
25628;DHT22;40915;50.826;4.356;2023-02-28T03:11:16;0.90;99.90
25628;DHT22;40915;50.826;4.356;2023-02-28T03:16:40;1.00;99.90
25628;DHT22;40915;50.826;4.356;2023-02-28T03:25:04;1.00;99.90
25628;DHT22;40915;50.826;4.356;2023-02-28T03:27:55;1.00;99.90
25628;DHT22;40915;50.826;4.356;2023-02-28T03:30:49;1.00;99.90
25628;DHT22;40915;50.826;4.356;2023-02-28T03:33:32;0.90;99.90
25628;DHT22;40915;50.826;4.356;2023-02-28T03:36:04;0.90;99.90
25628;DHT22;40915;50.826;4.356;2023-02-28T03:38:49;0.90;99.90
25628;DHT22;40915;50.826;4.356;2023-02-28T03:41:22;0.80;99.90
25628;DHT22;40915;50.826;4.356;2023-02-28T03:43:55;0.80;99.90
25628;DHT22;40915;50.826;4.356;2023-02-28T03:46:24;0.80;99.90
25628;DHT22;40915;50.826;4.356;2023-02-28T03:48:57;0.80;99.90
25628;DHT22;40915;50.826;4.356;2023-02-28T03:51:27;0.80;99.90
25628;DHT22;40915;50.826;4.356;2023-02-28T03:53:58;0.80;99.90
25628;DHT22;40915;50.826;4.356;2023-02-28T03:56:37;0.70;99.90
25628;DHT22;40915;50.826;4.356;2023-02-28T03:59:12;0.70;99.90
25628;DHT22;40915;50.826;4.356;2023-02-28T04:01:41;0.70;99.90
25628;DHT22;40915;50.826;4.356;2023-02-28T04:04:11;0.60;99.90
25628;DHT22;40915;50.826;4.356;2023-02-28T04:06:37;0.60;99.90
25628;DHT22;40915;50.826;4.356;2023-02-28T04:09:05;0.60;99.90
25628;DHT22;40915;50.826;4.356;2023-02-28T04:11:38;0.60;99.90
25628;DHT22;40915;50.826;4.356;2023-02-28T04:14:04;0.60;99.90
25628;DHT22;40915;50.826;4.356;2023-02-28T04:16:32;0.60;99.90
25628;DHT22;40915;50.826;4.356;2023-02-28T04:18:58;0.60;99.90
25628;DHT22;40915;50.826;4.356;2023-02-28T04:21:36;0.60;99.90
25628;DHT22;40915;50.826;4.356;2023-02-28T04:24:04;0.60;99.90
25628;DHT22;40915;50.826;4.356;2023-02-28T04:26:32;0.50;99.90
25628;DHT22;40915;50.826;4.356;2023-02-28T04:28:59;0.50;99.90
25628;DHT22;40915;50.826;4.356;2023-02-28T04:31:25;0.50;99.90
25628;DHT22;40915;50.826;4.356;2023-02-28T04:33:50;0.50;99.90
25628;DHT22;40915;50.826;4.356;2023-02-28T04:36:16;0.50;99.90
25628;DHT22;40915;50.826;4.356;2023-02-28T04:38:44;0.60;99.90
25628;DHT22;40915;50.826;4.356;2023-02-28T04:41:10;0.60;99.90
25628;DHT22;40915;50.826;4.356;2023-02-28T04:43:36;0.50;99.90
25628;DHT22;40915;50.826;4.356;2023-02-28T04:46:04;0.50;99.90
25628;DHT22;40915;50.826;4.356;2023-02-28T04:51:11;0.50;99.90
25628;DHT22;40915;50.826;4.356;2023-02-28T04:53:38;0.50;99.90
25628;DHT22;40915;50.826;4.356;2023-02-28T04:56:05;0.50;99.90
25628;DHT22;40915;50.826;4.356;2023-02-28T04:58:31;0.50;99.90
25628;DHT22;40915;50.826;4.356;2023-02-28T05:01:05;0.50;99.90
25628;DHT22;40915;50.826;4.356;2023-02-28T05:03:38;0.50;99.90
25628;DHT22;40915;50.826;4.356;2023-02-28T05:06:06;0.50;99.90
25628;DHT22;40915;50.826;4.356;2023-02-28T05:08:33;0.50;99.90
25628;DHT22;40915;50.826;4.356;2023-02-28T05:10:59;0.50;99.90
25628;DHT22;40915;50.826;4.356;2023-02-28T05:13:26;0.50;99.90
25628;DHT22;40915;50.826;4.356;2023-02-28T05:15:53;0.60;99.90
25628;DHT22;40915;50.826;4.356;2023-02-28T05:18:18;0.60;99.90
25628;DHT22;40915;50.826;4.356;2023-02-28T05:20:44;0.70;99.90
25628;DHT22;40915;50.826;4.356;2023-02-28T05:23:13;0.70;99.90
25628;DHT22;40915;50.826;4.356;2023-02-28T05:25:40;0.80;99.90
25628;DHT22;40915;50.826;4.356;2023-02-28T05:28:06;0.80;99.90
25628;DHT22;40915;50.826;4.356;2023-02-28T05:30:32;0.80;99.90
25628;DHT22;40915;50.826;4.356;2023-02-28T05:32:58;0.80;99.90
25628;DHT22;40915;50.826;4.356;2023-02-28T05:35:24;0.90;99.90
25628;DHT22;40915;50.826;4.356;2023-02-28T05:37:50;0.80;99.90
25628;DHT22;40915;50.826;4.356;2023-02-28T05:40:16;0.80;99.90
25628;DHT22;40915;50.826;4.356;2023-02-28T05:42:42;0.80;99.90
25628;DHT22;40915;50.826;4.356;2023-02-28T05:45:09;0.80;99.90
25628;DHT22;40915;50.826;4.356;2023-02-28T05:47:35;0.90;99.90
25628;DHT22;40915;50.826;4.356;2023-02-28T05:50:01;0.90;99.90
25628;DHT22;40915;50.826;4.356;2023-02-28T05:52:28;0.90;99.90
25628;DHT22;40915;50.826;4.356;2023-02-28T05:54:55;0.90;99.90
25628;DHT22;40915;50.826;4.356;2023-02-28T05:57:21;0.90;99.90
25628;DHT22;40915;50.826;4.356;2023-02-28T05:59:46;0.90;99.90
25628;DHT22;40915;50.826;4.356;2023-02-28T06:02:14;0.90;99.90
25628;DHT22;40915;50.826;4.356;2023-02-28T06:04:39;1.00;99.90
25628;DHT22;40915;50.826;4.356;2023-02-28T06:07:06;1.10;99.90
25628;DHT22;40915;50.826;4.356;2023-02-28T06:09:32;1.10;99.90
25628;DHT22;40915;50.826;4.356;2023-02-28T06:12:02;1.10;99.90
25628;DHT22;40915;50.826;4.356;2023-02-28T06:14:31;1.10;99.90
25628;DHT22;40915;50.826;4.356;2023-02-28T06:16:58;1.00;99.90
25628;DHT22;40915;50.826;4.356;2023-02-28T06:19:24;1.10;99.90
25628;DHT22;40915;50.826;4.356;2023-02-28T06:21:53;1.10;99.90
25628;DHT22;40915;50.826;4.356;2023-02-28T06:24:23;1.10;99.90
25628;DHT22;40915;50.826;4.356;2023-02-28T06:26:49;1.10;99.90
25628;DHT22;40915;50.826;4.356;2023-02-28T06:29:16;1.20;99.90
25628;DHT22;40915;50.826;4.356;2023-02-28T06:31:45;1.10;99.90
25628;DHT22;40915;50.826;4.356;2023-02-28T06:34:13;1.10;99.90
25628;DHT22;40915;50.826;4.356;2023-02-28T06:36:40;1.10;99.90
25628;DHT22;40915;50.826;4.356;2023-02-28T06:39:07;1.20;99.90
25628;DHT22;40915;50.826;4.356;2023-02-28T06:41:33;1.20;99.90
25628;DHT22;40915;50.826;4.356;2023-02-28T06:44:12;1.30;99.90
25628;DHT22;40915;50.826;4.356;2023-02-28T06:46:39;1.30;99.90
25628;DHT22;40915;50.826;4.356;2023-02-28T06:49:06;1.30;99.90
25628;DHT22;40915;50.826;4.356;2023-02-28T06:51:35;1.40;99.90
25628;DHT22;40915;50.826;4.356;2023-02-28T06:54:01;1.40;99.90
25628;DHT22;40915;50.826;4.356;2023-02-28T06:56:26;1.50;99.90
25628;DHT22;40915;50.826;4.356;2023-02-28T06:58:52;1.50;99.90
25628;DHT22;40915;50.826;4.356;2023-02-28T07:01:18;1.50;99.90
25628;DHT22;40915;50.826;4.356;2023-02-28T07:03:45;1.50;99.90
25628;DHT22;40915;50.826;4.356;2023-02-28T07:06:11;1.60;99.90
25628;DHT22;40915;50.826;4.356;2023-02-28T07:08:37;1.70;99.90
25628;DHT22;40915;50.826;4.356;2023-02-28T07:11:03;1.60;99.90
25628;DHT22;40915;50.826;4.356;2023-02-28T07:13:29;1.80;99.90
25628;DHT22;40915;50.826;4.356;2023-02-28T07:16:00;2.20;99.90
25628;DHT22;40915;50.826;4.356;2023-02-28T07:18:27;2.60;99.90
25628;DHT22;40915;50.826;4.356;2023-02-28T07:20:53;2.70;99.90
25628;DHT22;40915;50.826;4.356;2023-02-28T07:23:19;3.00;99.90
25628;DHT22;40915;50.826;4.356;2023-02-28T07:25:46;3.00;99.90
25628;DHT22;40915;50.826;4.356;2023-02-28T07:28:12;3.00;99.90
25628;DHT22;40915;50.826;4.356;2023-02-28T07:30:39;2.90;99.90
25628;DHT22;40915;50.826;4.356;2023-02-28T07:33:05;2.80;99.90
25628;DHT22;40915;50.826;4.356;2023-02-28T07:35:30;2.70;99.90
25628;DHT22;40915;50.826;4.356;2023-02-28T07:37:59;2.90;99.90
25628;DHT22;40915;50.826;4.356;2023-02-28T07:40:25;3.10;99.90
25628;DHT22;40915;50.826;4.356;2023-02-28T07:42:51;3.10;99.90
25628;DHT22;40915;50.826;4.356;2023-02-28T07:45:17;3.10;99.90
25628;DHT22;40915;50.826;4.356;2023-02-28T07:47:43;3.00;99.90
25628;DHT22;40915;50.826;4.356;2023-02-28T07:50:12;3.00;99.90
25628;DHT22;40915;50.826;4.356;2023-02-28T07:52:38;2.90;99.90
25628;DHT22;40915;50.826;4.356;2023-02-28T07:55:05;2.80;99.90
25628;DHT22;40915;50.826;4.356;2023-02-28T07:57:31;2.70;99.90
25628;DHT22;40915;50.826;4.356;2023-02-28T07:59:57;2.70;99.90
25628;DHT22;40915;50.826;4.356;2023-02-28T08:02:23;2.70;99.90
25628;DHT22;40915;50.826;4.356;2023-02-28T08:04:49;2.70;99.90
25628;DHT22;40915;50.826;4.356;2023-02-28T08:07:17;2.70;99.90
25628;DHT22;40915;50.826;4.356;2023-02-28T08:09:44;2.70;99.90
25628;DHT22;40915;50.826;4.356;2023-02-28T08:12:10;2.70;99.90
25628;DHT22;40915;50.826;4.356;2023-02-28T08:14:36;2.70;99.90
25628;DHT22;40915;50.826;4.356;2023-02-28T08:17:04;2.70;99.90
25628;DHT22;40915;50.826;4.356;2023-02-28T08:19:30;2.70;99.90
25628;DHT22;40915;50.826;4.356;2023-02-28T08:21:56;2.80;99.90
25628;DHT22;40915;50.826;4.356;2023-02-28T08:24:22;2.90;99.90
25628;DHT22;40915;50.826;4.356;2023-02-28T08:26:48;2.80;99.90
25628;DHT22;40915;50.826;4.356;2023-02-28T08:29:14;2.80;99.90
25628;DHT22;40915;50.826;4.356;2023-02-28T08:31:41;2.80;99.90
25628;DHT22;40915;50.826;4.356;2023-02-28T08:34:08;2.80;99.90
25628;DHT22;40915;50.826;4.356;2023-02-28T08:36:34;2.80;99.90
25628;DHT22;40915;50.826;4.356;2023-02-28T08:39:00;2.90;99.90
25628;DHT22;40915;50.826;4.356;2023-02-28T08:41:27;3.00;99.90
25628;DHT22;40915;50.826;4.356;2023-02-28T08:43:52;3.00;99.90
25628;DHT22;40915;50.826;4.356;2023-02-28T08:46:19;2.90;99.90
25628;DHT22;40915;50.826;4.356;2023-02-28T08:48:45;2.90;99.90
25628;DHT22;40915;50.826;4.356;2023-02-28T08:51:15;2.90;99.90
25628;DHT22;40915;50.826;4.356;2023-02-28T08:53:44;2.80;99.90
25628;DHT22;40915;50.826;4.356;2023-02-28T08:56:15;2.90;99.90
25628;DHT22;40915;50.826;4.356;2023-02-28T08:58:42;2.90;99.90
25628;DHT22;40915;50.826;4.356;2023-02-28T09:01:10;2.90;99.90
25628;DHT22;40915;50.826;4.356;2023-02-28T09:03:36;2.90;99.90
25628;DHT22;40915;50.826;4.356;2023-02-28T09:06:02;2.90;99.90
25628;DHT22;40915;50.826;4.356;2023-02-28T09:08:29;2.80;99.90
25628;DHT22;40915;50.826;4.356;2023-02-28T09:10:58;2.80;99.90
25628;DHT22;40915;50.826;4.356;2023-02-28T09:13:26;2.90;99.90
25628;DHT22;40915;50.826;4.356;2023-02-28T09:15:52;2.80;99.90
25628;DHT22;40915;50.826;4.356;2023-02-28T09:18:19;2.90;99.90
25628;DHT22;40915;50.826;4.356;2023-02-28T09:20:44;2.90;99.90
25628;DHT22;40915;50.826;4.356;2023-02-28T09:23:12;2.90;99.90
25628;DHT22;40915;50.826;4.356;2023-02-28T09:25:40;2.90;99.90
25628;DHT22;40915;50.826;4.356;2023-02-28T09:28:10;3.00;99.90
25628;DHT22;40915;50.826;4.356;2023-02-28T09:30:36;3.00;99.90
25628;DHT22;40915;50.826;4.356;2023-02-28T09:33:02;3.10;99.90
25628;DHT22;40915;50.826;4.356;2023-02-28T09:35:28;3.10;99.90
25628;DHT22;40915;50.826;4.356;2023-02-28T09:37:56;3.10;99.90
25628;DHT22;40915;50.826;4.356;2023-02-28T09:40:24;3.10;99.90
25628;DHT22;40915;50.826;4.356;2023-02-28T09:42:53;3.30;99.90
25628;DHT22;40915;50.826;4.356;2023-02-28T09:45:35;3.20;99.90
25628;DHT22;40915;50.826;4.356;2023-02-28T09:48:04;3.30;99.90
25628;DHT22;40915;50.826;4.356;2023-02-28T09:50:50;3.40;99.90
25628;DHT22;40915;50.826;4.356;2023-02-28T09:53:22;3.50;99.90
25628;DHT22;40915;50.826;4.356;2023-02-28T09:55:56;3.50;99.90
25628;DHT22;40915;50.826;4.356;2023-02-28T09:58:26;3.60;99.90
25628;DHT22;40915;50.826;4.356;2023-02-28T10:01:03;3.60;99.90
25628;DHT22;40915;50.826;4.356;2023-02-28T10:03:39;3.80;99.90
25628;DHT22;40915;50.826;4.356;2023-02-28T10:06:14;3.60;99.90
25628;DHT22;40915;50.826;4.356;2023-02-28T10:09:01;3.60;99.90
25628;DHT22;40915;50.826;4.356;2023-02-28T10:11:27;3.60;99.90
25628;DHT22;40915;50.826;4.356;2023-02-28T10:14:10;3.70;99.90
25628;DHT22;40915;50.826;4.356;2023-02-28T10:16:58;3.60;99.90
25628;DHT22;40915;50.826;4.356;2023-02-28T10:20:04;3.60;99.90
25628;DHT22;40915;50.826;4.356;2023-02-28T10:22:56;3.70;99.90
25628;DHT22;40915;50.826;4.356;2023-02-28T10:25:26;3.80;99.90
25628;DHT22;40915;50.826;4.356;2023-02-28T10:28:10;3.80;99.90
25628;DHT22;40915;50.826;4.356;2023-02-28T10:30:42;3.80;99.90
25628;DHT22;40915;50.826;4.356;2023-02-28T10:33:37;3.80;99.90
25628;DHT22;40915;50.826;4.356;2023-02-28T10:36:04;3.80;99.90
25628;DHT22;40915;50.826;4.356;2023-02-28T10:38:33;3.80;99.90
25628;DHT22;40915;50.826;4.356;2023-02-28T10:41:31;4.00;99.90
25628;DHT22;40915;50.826;4.356;2023-02-28T10:44:20;4.00;99.90
25628;DHT22;40915;50.826;4.356;2023-02-28T10:46:46;4.00;99.90
25628;DHT22;40915;50.826;4.356;2023-02-28T10:49:17;4.10;99.90
25628;DHT22;40915;50.826;4.356;2023-02-28T10:51:45;4.20;99.90
25628;DHT22;40915;50.826;4.356;2023-02-28T10:54:18;4.30;99.90
25628;DHT22;40915;50.826;4.356;2023-02-28T10:56:45;4.40;99.90
25628;DHT22;40915;50.826;4.356;2023-02-28T10:59:30;4.40;99.90
25628;DHT22;40915;50.826;4.356;2023-02-28T11:01:56;4.50;99.90
25628;DHT22;40915;50.826;4.356;2023-02-28T11:07:05;4.40;99.90
25628;DHT22;40915;50.826;4.356;2023-02-28T11:09:38;4.30;99.90
25628;DHT22;40915;50.826;4.356;2023-02-28T11:12:07;4.30;99.90
25628;DHT22;40915;50.826;4.356;2023-02-28T11:14:40;4.40;99.90
25628;DHT22;40915;50.826;4.356;2023-02-28T11:17:21;4.50;99.90
25628;DHT22;40915;50.826;4.356;2023-02-28T11:19:51;4.60;99.90
25628;DHT22;40915;50.826;4.356;2023-02-28T11:22:23;4.50;99.90
25628;DHT22;40915;50.826;4.356;2023-02-28T11:24:52;4.40;99.90
25628;DHT22;40915;50.826;4.356;2023-02-28T11:29:57;4.20;99.90
25628;DHT22;40915;50.826;4.356;2023-02-28T11:32:24;4.20;99.90
25628;DHT22;40915;50.826;4.356;2023-02-28T11:37:38;4.30;99.90
25628;DHT22;40915;50.826;4.356;2023-02-28T11:40:15;4.40;99.90
25628;DHT22;40915;50.826;4.356;2023-02-28T11:42:58;4.40;99.90
25628;DHT22;40915;50.826;4.356;2023-02-28T11:45:42;4.40;99.90
25628;DHT22;40915;50.826;4.356;2023-02-28T11:48:23;4.40;99.90
25628;DHT22;40915;50.826;4.356;2023-02-28T11:51:14;4.60;99.90
25628;DHT22;40915;50.826;4.356;2023-02-28T11:54:05;4.60;99.90
25628;DHT22;40915;50.826;4.356;2023-02-28T11:56:55;4.70;99.90
25628;DHT22;40915;50.826;4.356;2023-02-28T12:02:25;4.80;99.90
25628;DHT22;40915;50.826;4.356;2023-02-28T12:07:50;4.80;99.90
25628;DHT22;40915;50.826;4.356;2023-02-28T12:10:28;4.70;99.90
25628;DHT22;40915;50.826;4.356;2023-02-28T12:13:04;4.70;99.90
25628;DHT22;40915;50.826;4.356;2023-02-28T12:18:55;4.70;99.90
25628;DHT22;40915;50.826;4.356;2023-02-28T12:27:15;5.00;99.90
25628;DHT22;40915;50.826;4.356;2023-02-28T12:32:32;5.10;99.90
25628;DHT22;40915;50.826;4.356;2023-02-28T12:35:12;5.20;99.90
25628;DHT22;40915;50.826;4.356;2023-02-28T12:37:43;5.30;99.90
25628;DHT22;40915;50.826;4.356;2023-02-28T12:40:21;5.40;99.90
25628;DHT22;40915;50.826;4.356;2023-02-28T12:42:54;5.40;99.90
25628;DHT22;40915;50.826;4.356;2023-02-28T12:45:44;5.40;99.90
25628;DHT22;40915;50.826;4.356;2023-02-28T12:48:16;5.40;99.90
25628;DHT22;40915;50.826;4.356;2023-02-28T12:50:48;5.50;99.90
25628;DHT22;40915;50.826;4.356;2023-02-28T13:09:55;5.40;99.90
25628;DHT22;40915;50.826;4.356;2023-02-28T13:12:22;5.50;99.90
25628;DHT22;40915;50.826;4.356;2023-02-28T13:14:48;5.40;99.90
25628;DHT22;40915;50.826;4.356;2023-02-28T13:17:21;5.40;99.90
25628;DHT22;40915;50.826;4.356;2023-02-28T13:22:46;5.50;99.90
25628;DHT22;40915;50.826;4.356;2023-02-28T13:27:51;5.70;99.90
25628;DHT22;40915;50.826;4.356;2023-02-28T13:33:27;5.50;99.90
25628;DHT22;40915;50.826;4.356;2023-02-28T13:51:52;5.50;99.90
25628;DHT22;40915;50.826;4.356;2023-02-28T13:57:12;5.50;99.90
25628;DHT22;40915;50.826;4.356;2023-02-28T14:05:34;5.70;99.90
25628;DHT22;40915;50.826;4.356;2023-02-28T14:08:10;5.80;99.90
25628;DHT22;40915;50.826;4.356;2023-02-28T14:10:47;5.90;99.90
25628;DHT22;40915;50.826;4.356;2023-02-28T14:16:04;5.70;99.90
25628;DHT22;40915;50.826;4.356;2023-02-28T14:18:40;5.80;99.90
25628;DHT22;40915;50.826;4.356;2023-02-28T14:34:54;5.60;99.90
25628;DHT22;40915;50.826;4.356;2023-02-28T14:37:33;5.60;99.90
25628;DHT22;40915;50.826;4.356;2023-02-28T14:40:02;5.50;99.90
25628;DHT22;40915;50.826;4.356;2023-02-28T14:42:35;5.50;99.90
25628;DHT22;40915;50.826;4.356;2023-02-28T14:45:02;5.60;99.90
25628;DHT22;40915;50.826;4.356;2023-02-28T14:47:31;5.60;99.90
25628;DHT22;40915;50.826;4.356;2023-02-28T14:49:58;5.70;99.90
25628;DHT22;40915;50.826;4.356;2023-02-28T14:52:30;5.90;99.90
25628;DHT22;40915;50.826;4.356;2023-02-28T14:57:31;5.80;99.90
25628;DHT22;40915;50.826;4.356;2023-02-28T15:02:39;5.60;99.90
25628;DHT22;40915;50.826;4.356;2023-02-28T15:05:31;5.60;99.90
25628;DHT22;40915;50.826;4.356;2023-02-28T15:10:38;5.50;99.90
25628;DHT22;40915;50.826;4.356;2023-02-28T15:13:07;5.60;99.90
25628;DHT22;40915;50.826;4.356;2023-02-28T15:15:45;5.50;99.90
25628;DHT22;40915;50.826;4.356;2023-02-28T15:21:12;5.60;99.90
25628;DHT22;40915;50.826;4.356;2023-02-28T15:23:41;5.60;99.90
25628;DHT22;40915;50.826;4.356;2023-02-28T15:26:16;5.60;99.90
25628;DHT22;40915;50.826;4.356;2023-02-28T15:28:44;5.60;99.90
25628;DHT22;40915;50.826;4.356;2023-02-28T15:31:28;5.50;99.90
25628;DHT22;40915;50.826;4.356;2023-02-28T15:33:57;5.50;99.90
25628;DHT22;40915;50.826;4.356;2023-02-28T15:36:30;5.40;99.90
25628;DHT22;40915;50.826;4.356;2023-02-28T15:38:58;5.50;99.90
25628;DHT22;40915;50.826;4.356;2023-02-28T15:41:28;5.50;99.90
25628;DHT22;40915;50.826;4.356;2023-02-28T15:44:16;5.50;99.90
25628;DHT22;40915;50.826;4.356;2023-02-28T15:46:52;5.40;99.90
25628;DHT22;40915;50.826;4.356;2023-02-28T15:49:21;5.50;99.90
25628;DHT22;40915;50.826;4.356;2023-02-28T15:51:49;5.50;99.90
25628;DHT22;40915;50.826;4.356;2023-02-28T15:54:21;5.50;99.90
25628;DHT22;40915;50.826;4.356;2023-02-28T15:56:51;5.40;99.90
25628;DHT22;40915;50.826;4.356;2023-02-28T15:59:21;5.30;99.90
25628;DHT22;40915;50.826;4.356;2023-02-28T16:02:19;5.30;99.90
25628;DHT22;40915;50.826;4.356;2023-02-28T16:04:56;5.30;99.90
25628;DHT22;40915;50.826;4.356;2023-02-28T16:07:22;5.30;99.90
25628;DHT22;40915;50.826;4.356;2023-02-28T16:09:49;5.20;99.90
25628;DHT22;40915;50.826;4.356;2023-02-28T16:12:15;5.20;99.90
25628;DHT22;40915;50.826;4.356;2023-02-28T16:14:41;5.20;99.90
25628;DHT22;40915;50.826;4.356;2023-02-28T16:17:20;5.10;99.90
25628;DHT22;40915;50.826;4.356;2023-02-28T16:19:47;5.10;99.90
25628;DHT22;40915;50.826;4.356;2023-02-28T16:22:12;5.10;99.90
25628;DHT22;40915;50.826;4.356;2023-02-28T16:24:38;5.10;99.90
25628;DHT22;40915;50.826;4.356;2023-02-28T16:27:06;5.00;99.90
25628;DHT22;40915;50.826;4.356;2023-02-28T16:29:34;5.10;99.90
25628;DHT22;40915;50.826;4.356;2023-02-28T16:32:04;5.10;99.90
25628;DHT22;40915;50.826;4.356;2023-02-28T16:34:30;5.00;99.90
25628;DHT22;40915;50.826;4.356;2023-02-28T16:36:56;5.00;99.90
25628;DHT22;40915;50.826;4.356;2023-02-28T16:39:22;5.00;99.90
25628;DHT22;40915;50.826;4.356;2023-02-28T16:41:49;4.90;99.90
25628;DHT22;40915;50.826;4.356;2023-02-28T16:44:27;4.90;99.90
25628;DHT22;40915;50.826;4.356;2023-02-28T16:46:53;4.80;99.90
25628;DHT22;40915;50.826;4.356;2023-02-28T16:49:20;4.80;99.90
25628;DHT22;40915;50.826;4.356;2023-02-28T16:51:54;4.70;99.90
25628;DHT22;40915;50.826;4.356;2023-02-28T16:54:21;4.70;99.90
25628;DHT22;40915;50.826;4.356;2023-02-28T16:56:48;4.70;99.90
25628;DHT22;40915;50.826;4.356;2023-02-28T16:59:18;4.70;99.90
25628;DHT22;40915;50.826;4.356;2023-02-28T17:01:45;4.60;99.90
25628;DHT22;40915;50.826;4.356;2023-02-28T17:04:12;4.60;99.90
25628;DHT22;40915;50.826;4.356;2023-02-28T17:06:39;4.60;99.90
25628;DHT22;40915;50.826;4.356;2023-02-28T17:09:05;4.60;99.90
25628;DHT22;40915;50.826;4.356;2023-02-28T17:11:36;4.50;99.90
25628;DHT22;40915;50.826;4.356;2023-02-28T17:14:01;4.50;99.90
25628;DHT22;40915;50.826;4.356;2023-02-28T17:16:33;4.60;99.90
25628;DHT22;40915;50.826;4.356;2023-02-28T17:19:02;4.50;99.90
25628;DHT22;40915;50.826;4.356;2023-02-28T17:21:29;4.50;99.90
25628;DHT22;40915;50.826;4.356;2023-02-28T17:23:55;4.50;99.90
25628;DHT22;40915;50.826;4.356;2023-02-28T17:26:24;4.40;99.90
25628;DHT22;40915;50.826;4.356;2023-02-28T17:28:51;4.40;99.90
25628;DHT22;40915;50.826;4.356;2023-02-28T17:31:18;4.30;99.90
25628;DHT22;40915;50.826;4.356;2023-02-28T17:33:44;4.30;99.90
25628;DHT22;40915;50.826;4.356;2023-02-28T17:36:23;4.30;99.90
25628;DHT22;40915;50.826;4.356;2023-02-28T17:38:50;4.30;99.90
25628;DHT22;40915;50.826;4.356;2023-02-28T17:41:15;4.30;99.90
25628;DHT22;40915;50.826;4.356;2023-02-28T17:43:41;4.20;99.90
25628;DHT22;40915;50.826;4.356;2023-02-28T17:46:27;4.20;99.90
25628;DHT22;40915;50.826;4.356;2023-02-28T17:48:54;4.20;99.90
25628;DHT22;40915;50.826;4.356;2023-02-28T17:51:22;4.20;99.90
25628;DHT22;40915;50.826;4.356;2023-02-28T17:53:47;4.10;99.90
25628;DHT22;40915;50.826;4.356;2023-02-28T17:56:20;4.10;99.90
25628;DHT22;40915;50.826;4.356;2023-02-28T17:58:46;4.10;99.90
25628;DHT22;40915;50.826;4.356;2023-02-28T18:01:12;4.10;99.90
25628;DHT22;40915;50.826;4.356;2023-02-28T18:03:38;4.10;99.90
25628;DHT22;40915;50.826;4.356;2023-02-28T18:06:04;4.00;99.90
25628;DHT22;40915;50.826;4.356;2023-02-28T18:08:31;4.00;99.90
25628;DHT22;40915;50.826;4.356;2023-02-28T18:11:00;3.90;99.90
25628;DHT22;40915;50.826;4.356;2023-02-28T18:13:25;3.90;99.90
25628;DHT22;40915;50.826;4.356;2023-02-28T18:15:53;3.90;99.90